Time;durP1;ratioP1;P1;durP2;ratioP2;P2;SDS_P1;SDS_P2;PMS_P1;PMS_P2;Temp;Humidity;BMP_temperature;BMP_pressure;BME280_temperature;BME280_humidity;BME280_pressure;Samples;Min_cycle;Max_cycle;Signal;HPM_P1;HPM_P2
2022/11/30 00:01:26;;;;;;;37.28;23.27;;;;;;;;;;5074097;28;20041;-71
2022/11/30 00:03:55;;;;;;;38.60;24.35;;;;;;;;;;5074111;28;20023;-70
2022/11/30 00:06:23;;;;;;;41.38;23.75;;;;;;;;;;5039692;28;20025;-71
2022/11/30 00:08:51;;;;;;;38.88;23.83;;;;;;;;;;5073918;28;20098;-69
2022/11/30 00:11:19;;;;;;;36.90;23.23;;;;;;;;;;5055963;28;20040;-71
2022/11/30 00:13:45;;;;;;;40.63;24.48;;;;;;;;;;5073769;28;20028;-71
2022/11/30 00:16:10;;;;;;;45.63;25.42;;;;;;;;;;5073972;28;20016;-70
2022/11/30 00:18:35;;;;;;;41.22;23.95;;;;;;;;;;5073935;28;20466;-70
2022/11/30 00:21:01;;;;;;;30.45;19.15;;;;;;;;;;5073653;28;20429;-70
2022/11/30 00:23:33;;;;;;;30.95;20.02;;;;;;;;;;5073211;28;20025;-70
2022/11/30 00:26:06;;;;;;;33.40;20.85;;;;;;;;;;5073389;28;20374;-69
2022/11/30 00:28:32;;;;;;;32.20;22.42;;;;;;;;;;5073789;28;20425;-69
2022/11/30 00:31:02;;;;;;;32.70;21.42;;;;;;;;;;5055744;28;20103;-70
2022/11/30 00:33:28;;;;;;;34.85;21.55;;;;;;;;;;5073629;28;20095;-70
2022/11/30 00:36:06;;;;;;;31.52;21.52;;;;;;;;;;5073773;28;20025;-69
2022/11/30 00:38:32;;;;;;;34.10;22.50;;;;;;;;;;5055799;28;20064;-69
2022/11/30 00:40:58;;;;;;;36.38;23.23;;;;;;;;;;5073777;28;20063;-69
2022/11/30 00:43:24;;;;;;;41.35;24.23;;;;;;;;;;5073533;28;20039;-69
2022/11/30 00:45:49;;;;;;;34.28;22.95;;;;;;;;;;5073350;28;20013;-69
2022/11/30 00:48:15;;;;;;;34.30;21.38;;;;;;;;;;5073300;28;20024;-69
2022/11/30 00:50:40;;;;;;;30.80;19.88;;;;;;;;;;5073347;28;20466;-69
2022/11/30 00:53:06;;;;;;;28.08;18.63;;;;;;;;;;5073494;28;20059;-70
2022/11/30 00:55:32;;;;;;;32.20;20.13;;;;;;;;;;5073607;28;20370;-70
2022/11/30 00:57:57;;;;;;;28.52;19.52;;;;;;;;;;5073612;28;20040;-70
2022/11/30 01:00:23;;;;;;;30.70;21.08;;;;;;;;;;5055214;28;20017;-70
2022/11/30 01:02:52;;;;;;;32.47;21.40;;;;;;;;;;5073413;28;20036;-70
2022/11/30 01:05:18;;;;;;;31.20;21.08;;;;;;;;;;5073525;28;20016;-70
2022/11/30 01:07:43;;;;;;;30.63;20.98;;;;;;;;;;5055846;28;20393;-70
2022/11/30 01:10:08;;;;;;;29.63;20.42;;;;;;;;;;5073430;28;20446;-69
2022/11/30 01:12:34;;;;;;;30.05;20.70;;;;;;;;;;5073365;28;20044;-70
2022/11/30 01:14:59;;;;;;;31.27;20.65;;;;;;;;;;5073578;28;20013;-70
2022/11/30 01:17:25;;;;;;;35.28;23.08;;;;;;;;;;5073510;28;20017;-70
2022/11/30 01:19:50;;;;;;;32.50;23.65;;;;;;;;;;5073471;28;20409;-70
2022/11/30 01:22:15;;;;;;;33.50;22.27;;;;;;;;;;5073396;28;20123;-70
2022/11/30 01:24:41;;;;;;;36.28;24.13;;;;;;;;;;5073050;28;20103;-69
2022/11/30 01:27:06;;;;;;;32.30;21.80;;;;;;;;;;5073099;28;20045;-70
2022/11/30 01:29:32;;;;;;;32.63;22.23;;;;;;;;;;5055031;28;20525;-70
2022/11/30 01:31:57;;;;;;;37.47;24.15;;;;;;;;;;5055193;28;20029;-69
2022/11/30 01:34:22;;;;;;;38.55;24.27;;;;;;;;;;5074004;28;20028;-70
2022/11/30 01:36:48;;;;;;;30.05;21.48;;;;;;;;;;5076870;28;20063;-69
2022/11/30 01:39:13;;;;;;;32.50;21.02;;;;;;;;;;5076899;28;20367;-69
2022/11/30 01:41:39;;;;;;;30.85;20.98;;;;;;;;;;5076373;28;20028;-69
2022/11/30 01:44:04;;;;;;;30.35;19.33;;;;;;;;;;5076659;28;20066;-69
2022/11/30 01:46:48;;;;;;;30.73;19.90;;;;;;;;;;5058885;28;20028;-69
2022/11/30 01:49:17;;;;;;;30.08;20.13;;;;;;;;;;5076719;28;20375;-69
2022/11/30 01:51:50;;;;;;;31.23;19.90;;;;;;;;;;5076516;28;20017;-69
2022/11/30 01:54:19;;;;;;;32.42;20.98;;;;;;;;;;5076572;28;20032;-69
2022/11/30 01:56:51;;;;;;;32.05;20.90;;;;;;;;;;5076480;28;20025;-68
2022/11/30 01:59:17;;;;;;;33.10;22.23;;;;;;;;;;5076558;28;20374;-69
2022/11/30 02:01:43;;;;;;;33.00;21.85;;;;;;;;;;5076046;28;20643;-69
2022/11/30 02:04:20;;;;;;;36.25;24.42;;;;;;;;;;5076356;28;20067;-70
2022/11/30 02:06:47;;;;;;;32.97;21.58;;;;;;;;;;5058554;28;20463;-70
2022/11/30 02:09:13;;;;;;;32.60;21.67;;;;;;;;;;5076029;28;20471;-69
2022/11/30 02:11:39;;;;;;;34.58;22.98;;;;;;;;;;5076036;28;20024;-69
2022/11/30 02:14:16;;;;;;;29.90;21.60;;;;;;;;;;5058146;28;20439;-69
2022/11/30 02:17:00;;;;;;;30.88;20.50;;;;;;;;;;5075974;28;20494;-69
2022/11/30 02:19:44;;;;;;;30.00;21.60;;;;;;;;;;5075623;28;20036;-70
2022/11/30 02:22:21;;;;;;;30.88;21.75;;;;;;;;;;5057674;28;20118;-69
2022/11/30 02:25:06;;;;;;;30.00;20.08;;;;;;;;;;5075792;28;20028;-69
2022/11/30 02:27:40;;;;;;;33.88;21.35;;;;;;;;;;5075587;28;20032;-69
2022/11/30 02:30:10;;;;;;;33.97;21.10;;;;;;;;;;5057624;28;20039;-69
2022/11/30 02:32:46;;;;;;;32.30;20.83;;;;;;;;;;5057515;28;20041;-69
2022/11/30 02:35:13;;;;;;;30.52;20.95;;;;;;;;;;5075863;28;20362;-69
2022/11/30 02:37:39;;;;;;;32.72;20.75;;;;;;;;;;5075489;28;20005;-69
2022/11/30 02:40:08;;;;;;;30.50;21.33;;;;;;;;;;5057547;28;20471;-68
2022/11/30 02:42:33;;;;;;;29.92;20.92;;;;;;;;;;5075465;28;20375;-68
2022/11/30 02:44:59;;;;;;;29.10;19.95;;;;;;;;;;5075361;28;20043;-70
2022/11/30 02:47:24;;;;;;;29.73;19.90;;;;;;;;;;5074424;28;20027;-71
2022/11/30 02:49:57;;;;;;;27.75;18.88;;;;;;;;;;5075690;28;20024;-70
2022/11/30 02:52:25;;;;;;;27.45;18.20;;;;;;;;;;5074496;22;20517;-68
2022/11/30 02:54:50;;;;;;;26.30;18.10;;;;;;;;;;5055210;28;20056;-69
2022/11/30 02:57:16;;;;;;;30.48;20.77;;;;;;;;;;5055440;28;20064;-68
2022/11/30 02:59:41;;;;;;;29.60;20.55;;;;;;;;;;5055212;28;20016;-68
2022/11/30 03:02:07;;;;;;;28.90;19.58;;;;;;;;;;5075147;28;20093;-67
2022/11/30 03:04:32;;;;;;;27.27;19.52;;;;;;;;;;5075195;28;20103;-68
2022/11/30 03:06:58;;;;;;;25.02;17.75;;;;;;;;;;5075225;28;20108;-66
2022/11/30 03:09:24;;;;;;;23.83;17.85;;;;;;;;;;5057249;28;20352;-66
2022/11/30 03:11:50;;;;;;;28.98;19.75;;;;;;;;;;5075052;28;20047;-67
2022/11/30 03:14:15;;;;;;;25.27;19.58;;;;;;;;;;5075166;28;20024;-68
2022/11/30 03:16:42;;;;;;;26.73;18.20;;;;;;;;;;5074647;28;20060;-68
2022/11/30 03:19:08;;;;;;;26.45;18.80;;;;;;;;;;5075002;28;20020;-68
2022/11/30 03:21:33;;;;;;;25.15;18.30;;;;;;;;;;5073343;28;20094;-68
2022/11/30 03:23:59;;;;;;;25.58;18.15;;;;;;;;;;5055124;28;20063;-68
2022/11/30 03:26:25;;;;;;;28.70;19.67;;;;;;;;;;5036823;28;20068;-67
2022/11/30 03:28:50;;;;;;;28.67;18.38;;;;;;;;;;5036971;28;20020;-67
2022/11/30 03:31:16;;;;;;;25.60;18.73;;;;;;;;;;5036704;28;20087;-67
2022/11/30 03:33:41;;;;;;;34.97;28.88;;;;;;;;;;5054690;28;20035;-72
2022/11/30 03:36:08;;;;;;;26.00;20.40;;;;;;;;;;5054466;28;20023;-70
2022/11/30 03:38:34;;;;;;;60.22;53.85;;;;;;;;;;5036644;28;20017;-70
2022/11/30 03:41:01;;;;;;;30.95;21.63;;;;;;;;;;5054531;28;20040;-70
2022/11/30 03:43:26;;;;;;;35.13;26.63;;;;;;;;;;5054375;28;20370;-69
2022/11/30 03:45:52;;;;;;;34.13;27.85;;;;;;;;;;5036274;28;20025;-69
2022/11/30 03:48:17;;;;;;;37.95;31.45;;;;;;;;;;5054320;28;20024;-68
2022/11/30 03:50:48;;;;;;;33.10;25.38;;;;;;;;;;5054210;28;20111;-68
2022/11/30 03:53:14;;;;;;;26.17;18.40;;;;;;;;;;5053798;28;20132;-70
2022/11/30 03:55:39;;;;;;;28.83;20.95;;;;;;;;;;5053965;28;20102;-70
2022/11/30 03:58:04;;;;;;;25.60;17.98;;;;;;;;;;5053756;28;20108;-71
2022/11/30 04:00:30;;;;;;;32.65;22.25;;;;;;;;;;5036216;28;20111;-68
2022/11/30 04:02:55;;;;;;;26.40;17.63;;;;;;;;;;5054032;28;20029;-69
2022/11/30 04:05:21;;;;;;;27.35;17.92;;;;;;;;;;5053973;28;20094;-69
2022/11/30 04:07:46;;;;;;;26.33;18.38;;;;;;;;;;5053780;28;20036;-70
2022/11/30 04:10:12;;;;;;;25.48;17.30;;;;;;;;;;5053917;28;20017;-68
2022/11/30 04:12:37;;;;;;;26.70;17.48;;;;;;;;;;5053858;28;20036;-70
2022/11/30 04:15:03;;;;;;;23.00;16.80;;;;;;;;;;5053813;28;20547;-69
2022/11/30 04:17:28;;;;;;;24.15;17.13;;;;;;;;;;5053587;28;20558;-69
2022/11/30 04:19:53;;;;;;;26.20;19.52;;;;;;;;;;5053689;28;20044;-70
2022/11/30 04:22:19;;;;;;;24.10;18.23;;;;;;;;;;5053766;28;20025;-69
2022/11/30 04:24:44;;;;;;;26.65;19.00;;;;;;;;;;5053859;28;20067;-70
2022/11/30 04:27:09;;;;;;;25.92;18.20;;;;;;;;;;5019313;28;20029;-70
2022/11/30 04:29:35;;;;;;;27.27;19.60;;;;;;;;;;5053632;28;20017;-69
2022/11/30 04:32:00;;;;;;;27.10;18.17;;;;;;;;;;5053422;28;20459;-70
2022/11/30 04:34:27;;;;;;;25.73;17.95;;;;;;;;;;5035791;28;20414;-69
2022/11/30 04:36:53;;;;;;;27.50;18.50;;;;;;;;;;5036070;28;20447;-70
2022/11/30 04:39:18;;;;;;;26.05;19.10;;;;;;;;;;5053468;28;20028;-70
2022/11/30 04:41:43;;;;;;;26.67;18.65;;;;;;;;;;5035494;28;20033;-70
2022/11/30 04:44:09;;;;;;;25.20;17.90;;;;;;;;;;5053647;28;20021;-70
2022/11/30 04:46:35;;;;;;;27.80;20.60;;;;;;;;;;5053738;28;20036;-70
2022/11/30 04:49:00;;;;;;;26.42;19.42;;;;;;;;;;5053945;28;20021;-70
2022/11/30 04:51:26;;;;;;;23.60;17.35;;;;;;;;;;5053536;28;20980;-70
2022/11/30 04:53:51;;;;;;;23.48;18.05;;;;;;;;;;5019736;28;20032;-70
2022/11/30 04:56:17;;;;;;;25.60;17.92;;;;;;;;;;5053872;28;20379;-69
2022/11/30 04:58:42;;;;;;;24.63;18.23;;;;;;;;;;5036007;28;20387;-69
2022/11/30 05:01:08;;;;;;;26.00;18.17;;;;;;;;;;5053451;28;20112;-69
2022/11/30 05:03:34;;;;;;;25.30;17.55;;;;;;;;;;5053847;28;20041;-69
2022/11/30 05:05:59;;;;;;;24.55;17.50;;;;;;;;;;5053479;28;20044;-68
2022/11/30 05:08:25;;;;;;;25.67;18.65;;;;;;;;;;5053419;28;20032;-69
2022/11/30 05:10:51;;;;;;;24.10;18.45;;;;;;;;;;5056417;28;20033;-70
2022/11/30 05:13:17;;;;;;;26.33;18.52;;;;;;;;;;5057574;28;20367;-70
2022/11/30 05:15:42;;;;;;;28.38;18.65;;;;;;;;;;5056936;28;20029;-70
2022/11/30 05:18:09;;;;;;;25.98;19.00;;;;;;;;;;5057505;28;20045;-70
2022/11/30 05:20:35;;;;;;;26.67;18.13;;;;;;;;;;5057324;28;20352;-68
2022/11/30 05:23:00;;;;;;;25.13;17.60;;;;;;;;;;5056967;28;20025;-69
2022/11/30 05:25:26;;;;;;;27.63;18.40;;;;;;;;;;5055865;28;20029;-68
2022/11/30 05:27:51;;;;;;;27.40;19.42;;;;;;;;;;5055649;28;20103;-67
2022/11/30 05:30:16;;;;;;;27.77;19.20;;;;;;;;;;5039020;28;20056;-69
2022/11/30 05:32:42;;;;;;;27.30;17.65;;;;;;;;;;5056928;28;20407;-70
2022/11/30 05:35:07;;;;;;;26.05;17.73;;;;;;;;;;5039253;28;20100;-69
2022/11/30 05:37:33;;;;;;;24.85;17.25;;;;;;;;;;5056789;28;20375;-70
2022/11/30 05:39:59;;;;;;;24.42;17.42;;;;;;;;;;5057466;28;20104;-70
2022/11/30 05:42:24;;;;;;;26.88;18.55;;;;;;;;;;5038559;28;20056;-67
2022/11/30 05:44:49;;;;;;;28.40;18.88;;;;;;;;;;5056721;28;20037;-68
2022/11/30 05:47:15;;;;;;;25.27;17.50;;;;;;;;;;5039094;28;20446;-68
2022/11/30 05:49:40;;;;;;;29.58;20.58;;;;;;;;;;5056877;28;20025;-68
2022/11/30 05:52:06;;;;;;;28.90;19.17;;;;;;;;;;5056482;28;20037;-68
2022/11/30 05:54:32;;;;;;;29.27;20.15;;;;;;;;;;5038776;28;20032;-67
2022/11/30 05:56:57;;;;;;;28.05;19.88;;;;;;;;;;5056516;28;20029;-68
2022/11/30 05:59:23;;;;;;;26.33;19.63;;;;;;;;;;5056789;28;20075;-68
2022/11/30 06:01:50;;;;;;;25.05;19.25;;;;;;;;;;5056604;28;20542;-69
2022/11/30 06:04:15;;;;;;;29.45;20.25;;;;;;;;;;5056619;28;20112;-69
2022/11/30 06:06:46;;;;;;;32.70;22.30;;;;;;;;;;5056528;28;20056;-70
2022/11/30 06:09:12;;;;;;;25.17;19.08;;;;;;;;;;5056249;28;20047;-71
2022/11/30 06:11:37;;;;;;;25.98;20.60;;;;;;;;;;5055766;28;20021;-69
2022/11/30 06:14:03;;;;;;;22.52;16.88;;;;;;;;;;5038127;28;20040;-69
2022/11/30 06:16:28;;;;;;;20.13;15.23;;;;;;;;;;5055643;28;20032;-69
2022/11/30 06:18:53;;;;;;;21.50;16.48;;;;;;;;;;5037908;28;20037;-69
2022/11/30 06:21:19;;;;;;;26.83;19.20;;;;;;;;;;5055258;28;20021;-69
2022/11/30 06:23:44;;;;;;;25.45;18.55;;;;;;;;;;5037563;28;20040;-70
2022/11/30 06:26:10;;;;;;;25.38;19.02;;;;;;;;;;5055327;28;20078;-69
2022/11/30 06:28:36;;;;;;;26.30;19.02;;;;;;;;;;5054854;28;20056;-69
2022/11/30 06:31:03;;;;;;;23.67;17.52;;;;;;;;;;5054739;28;20110;-69
2022/11/30 06:33:29;;;;;;;23.38;16.88;;;;;;;;;;5037505;28;20071;-69
2022/11/30 06:35:54;;;;;;;24.67;18.30;;;;;;;;;;5054897;28;20052;-71
2022/11/30 06:38:20;;;;;;;25.95;18.50;;;;;;;;;;5055072;28;20029;-70
2022/11/30 06:40:45;;;;;;;24.70;18.30;;;;;;;;;;5055202;28;20463;-69
2022/11/30 06:43:11;;;;;;;22.48;17.50;;;;;;;;;;5055603;28;20491;-70
2022/11/30 06:45:36;;;;;;;22.15;17.10;;;;;;;;;;5055004;28;20091;-69
2022/11/30 06:48:01;;;;;;;20.45;17.10;;;;;;;;;;5037938;28;20463;-69
2022/11/30 06:50:27;;;;;;;25.80;18.20;;;;;;;;;;5055530;28;20017;-70
2022/11/30 06:52:54;;;;;;;26.58;20.20;;;;;;;;;;5055006;28;20045;-70
2022/11/30 06:55:20;;;;;;;27.35;20.05;;;;;;;;;;5036975;28;20024;-70
2022/11/30 06:57:45;;;;;;;24.35;17.77;;;;;;;;;;5037408;28;20376;-67
2022/11/30 07:00:11;;;;;;;27.25;19.70;;;;;;;;;;5053817;28;20039;-67
2022/11/30 07:02:37;;;;;;;28.27;20.45;;;;;;;;;;5034662;28;20025;-68
2022/11/30 07:05:02;;;;;;;21.83;17.38;;;;;;;;;;5052488;28;20024;-67
2022/11/30 07:07:28;;;;;;;24.40;16.92;;;;;;;;;;5052937;28;20495;-67
2022/11/30 07:09:53;;;;;;;24.30;17.35;;;;;;;;;;5052892;28;20075;-67
2022/11/30 07:12:19;;;;;;;20.73;15.80;;;;;;;;;;5052773;28;20021;-68
2022/11/30 07:14:44;;;;;;;19.70;16.95;;;;;;;;;;5052826;28;20391;-67
2022/11/30 07:17:09;;;;;;;22.40;18.13;;;;;;;;;;5052932;28;20053;-67
2022/11/30 07:19:35;;;;;;;20.50;16.42;;;;;;;;;;5054426;28;20033;-67
2022/11/30 07:22:00;;;;;;;20.98;17.27;;;;;;;;;;5054682;28;20021;-67
2022/11/30 07:27:09;;;;;;;22.25;18.42;;;;;;;;;;5054557;28;20040;-67
2022/11/30 07:29:35;;;;;;;23.35;18.77;;;;;;;;;;5036790;28;20024;-67
2022/11/30 07:32:00;;;;;;;22.80;17.67;;;;;;;;;;5053819;28;20029;-68
2022/11/30 07:34:26;;;;;;;22.52;17.63;;;;;;;;;;5054437;28;20021;-67
2022/11/30 07:36:52;;;;;;;19.27;17.27;;;;;;;;;;5054457;28;20376;-67
2022/11/30 07:39:18;;;;;;;22.00;17.95;;;;;;;;;;5054326;28;20067;-67
2022/11/30 07:41:49;;;;;;;20.20;17.45;;;;;;;;;;5064310;22;20406;-69
2022/11/30 07:44:16;;;;;;;22.92;17.67;;;;;;;;;;5036615;28;20025;-69
2022/11/30 07:46:42;;;;;;;20.33;14.90;;;;;;;;;;5053072;28;20009;-69
2022/11/30 07:49:08;;;;;;;19.05;14.57;;;;;;;;;;5054173;28;20043;-69
2022/11/30 07:51:34;;;;;;;20.17;16.08;;;;;;;;;;5052813;28;20060;-69
2022/11/30 07:53:59;;;;;;;21.70;15.68;;;;;;;;;;5054108;28;20024;-70
2022/11/30 07:56:26;;;;;;;18.98;15.90;;;;;;;;;;5054301;28;20096;-70
2022/11/30 07:58:53;;;;;;;19.73;15.88;;;;;;;;;;5074084;28;20126;-70
2022/11/30 08:01:20;;;;;;;20.17;15.35;;;;;;;;;;5056026;28;20028;-70
2022/11/30 08:03:45;;;;;;;20.70;15.57;;;;;;;;;;5073950;28;20029;-70
2022/11/30 08:06:12;;;;;;;23.60;19.13;;;;;;;;;;5074016;28;20027;-70
2022/11/30 08:08:38;;;;;;;19.25;16.13;;;;;;;;;;5055985;28;20394;-69
2022/11/30 08:11:05;;;;;;;45.83;38.92;;;;;;;;;;5073760;28;20032;-69
2022/11/30 08:13:30;;;;;;;27.08;20.77;;;;;;;;;;5073895;28;20078;-70
2022/11/30 08:16:00;;;;;;;21.80;17.75;;;;;;;;;;5073800;28;20020;-69
2022/11/30 08:18:25;;;;;;;17.98;14.27;;;;;;;;;;5073837;28;20047;-69
2022/11/30 08:20:57;;;;;;;18.73;15.07;;;;;;;;;;5073820;28;20016;-70
2022/11/30 08:23:22;;;;;;;20.55;15.60;;;;;;;;;;5073826;28;20429;-70
2022/11/30 08:25:48;;;;;;;21.65;16.60;;;;;;;;;;5055677;28;20024;-69
2022/11/30 08:28:13;;;;;;;19.58;16.17;;;;;;;;;;5073792;28;20058;-70
2022/11/30 08:30:38;;;;;;;19.67;14.63;;;;;;;;;;5073548;28;20434;-70
2022/11/30 08:33:04;;;;;;;21.75;15.68;;;;;;;;;;5055645;28;20082;-70
2022/11/30 08:35:29;;;;;;;20.95;14.48;;;;;;;;;;5073547;28;20099;-69
2022/11/30 08:37:54;;;;;;;20.05;15.55;;;;;;;;;;5073538;28;20024;-70
2022/11/30 08:40:20;;;;;;;20.98;14.90;;;;;;;;;;5055560;28;20108;-70
2022/11/30 08:42:45;;;;;;;26.25;16.40;;;;;;;;;;5068859;28;20482;-70
2022/11/30 08:45:11;;;;;;;19.75;15.40;;;;;;;;;;5097665;28;20363;-70
2022/11/30 08:47:36;;;;;;;20.70;15.15;;;;;;;;;;5097857;28;20023;-70
2022/11/30 08:50:02;;;;;;;18.92;14.30;;;;;;;;;;5079912;28;20036;-69
2022/11/30 08:52:27;;;;;;;19.17;14.52;;;;;;;;;;5097759;28;20133;-69
2022/11/30 08:54:53;;;;;;;21.88;15.38;;;;;;;;;;5079622;28;20398;-69
2022/11/30 08:57:19;;;;;;;22.85;16.17;;;;;;;;;;5097728;28;20020;-69
2022/11/30 08:59:45;;;;;;;23.20;16.58;;;;;;;;;;5097829;28;20021;-69
2022/11/30 09:02:12;;;;;;;19.58;15.02;;;;;;;;;;5097600;28;20020;-69
2022/11/30 09:07:04;;;;;;;15.60;12.85;;;;;;;;;;5105693;22;20066;-69
2022/11/30 09:09:29;;;;;;;17.83;12.88;;;;;;;;;;5097595;28;20024;-69
2022/11/30 09:11:55;;;;;;;18.48;15.10;;;;;;;;;;5079373;28;20031;-69
2022/11/30 09:14:20;;;;;;;16.98;12.98;;;;;;;;;;5097426;28;20059;-69
2022/11/30 09:16:46;;;;;;;16.48;12.38;;;;;;;;;;5097396;28;20051;-69
2022/11/30 09:19:11;;;;;;;14.38;12.73;;;;;;;;;;5097291;28;20028;-69
2022/11/30 09:21:36;;;;;;;16.42;12.38;;;;;;;;;;5097407;28;20020;-70
2022/11/30 09:24:02;;;;;;;14.27;12.02;;;;;;;;;;5079027;28;20058;-70
2022/11/30 09:26:27;;;;;;;21.70;14.02;;;;;;;;;;5078954;28;20374;-70
2022/11/30 09:28:53;;;;;;;17.92;13.88;;;;;;;;;;5097078;28;20474;-70
2022/11/30 09:31:19;;;;;;;14.52;12.07;;;;;;;;;;5096996;28;20024;-70
2022/11/30 09:33:45;;;;;;;15.88;12.73;;;;;;;;;;5078842;28;20564;-70
2022/11/30 09:36:12;;;;;;;22.23;16.38;;;;;;;;;;5096976;28;20095;-70
2022/11/30 09:38:38;;;;;;;29.98;18.77;;;;;;;;;;5096943;28;20044;-70
2022/11/30 09:41:05;;;;;;;19.67;14.55;;;;;;;;;;5096892;28;20029;-70
2022/11/30 09:43:40;;;;;;;27.23;19.17;;;;;;;;;;5078685;28;20020;-70
2022/11/30 09:46:07;;;;;;;18.88;15.63;;;;;;;;;;5078743;28;20036;-70
2022/11/30 09:48:51;;;;;;;22.75;16.10;;;;;;;;;;5096757;28;20359;-70
2022/11/30 09:51:24;;;;;;;20.40;15.18;;;;;;;;;;5078407;28;20078;-69
2022/11/30 09:54:11;;;;;;;22.38;16.02;;;;;;;;;;5078915;28;20024;-69
2022/11/30 09:56:41;;;;;;;18.85;15.20;;;;;;;;;;5077971;28;20383;-70
2022/11/30 09:59:07;;;;;;;;;;;;;;;;;;5097100;28;20414;-70
2022/11/30 10:01:33;;;;;;;39.08;28.60;;;;;;;;;;5096539;28;19910;-70
2022/11/30 10:04:00;;;;;;;65.35;51.60;;;;;;;;;;5096439;28;20028;-70
2022/11/30 10:06:31;;;;;;;16.25;14.55;;;;;;;;;;5096308;28;20067;-70
2022/11/30 10:08:56;;;;;;;16.88;13.77;;;;;;;;;;5096391;28;20075;-70
2022/11/30 10:11:28;;;;;;;66.65;58.10;;;;;;;;;;5078094;28;20055;-70
2022/11/30 10:14:12;;;;;;;32.55;25.50;;;;;;;;;;5096322;28;20546;-70
2022/11/30 10:16:43;;;;;;;29.38;25.77;;;;;;;;;;5096164;28;20031;-70
2022/11/30 10:19:27;;;;;;;27.45;24.58;;;;;;;;;;5096182;28;20078;-70
2022/11/30 10:21:56;;;;;;;23.58;20.58;;;;;;;;;;5096257;28;20107;-70
2022/11/30 10:24:30;;;;;;;25.77;23.02;;;;;;;;;;5096352;28;20028;-70
2022/11/30 10:26:57;;;;;;;21.75;18.40;;;;;;;;;;5096088;28;20489;-70
2022/11/30 10:29:22;;;;;;;18.92;14.93;;;;;;;;;;5096092;28;20020;-70
2022/11/30 10:31:50;;;;;;;18.23;15.95;;;;;;;;;;5095800;28;20077;-70
2022/11/30 10:34:23;;;;;;;16.42;13.32;;;;;;;;;;5095949;28;20103;-70
2022/11/30 10:37:07;;;;;;;17.33;15.20;;;;;;;;;;5093360;22;20102;-67
2022/11/30 10:39:45;;;;;;;15.52;13.43;;;;;;;;;;5075569;28;20020;-67
2022/11/30 10:42:13;;;;;;;12.77;11.43;;;;;;;;;;5075464;28;20033;-67
2022/11/30 10:44:40;;;;;;;15.40;12.90;;;;;;;;;;5077407;28;20020;-67
2022/11/30 10:47:10;;;;;;;21.20;16.42;;;;;;;;;;5095577;28;20118;-67
2022/11/30 10:49:36;;;;;;;;;;;;;;;;;;5077999;28;20436;-67
2022/11/30 10:52:04;;;;;;;17.98;13.57;;;;;;;;;;5077345;28;19912;-67
2022/11/30 10:54:30;;;;;;;16.10;12.32;;;;;;;;;;5077140;28;20051;-67
2022/11/30 10:56:57;;;;;;;14.50;11.05;;;;;;;;;;5076247;28;20471;-66
2022/11/30 10:59:24;;;;;;;13.80;11.75;;;;;;;;;;5094590;28;20026;-68
2022/11/30 11:01:52;;;;;;;13.05;11.02;;;;;;;;;;5094314;28;20022;-67
2022/11/30 11:04:17;;;;;;;16.02;12.82;;;;;;;;;;5094221;28;20111;-67
2022/11/30 11:06:46;;;;;;;19.42;17.38;;;;;;;;;;5093391;28;20119;-67
2022/11/30 11:09:30;;;;;;;15.50;12.63;;;;;;;;;;5093902;28;20093;-67
2022/11/30 11:12:22;;;;;;;17.48;13.15;;;;;;;;;;5094290;28;20106;-67
2022/11/30 11:14:47;;;;;;;16.30;13.63;;;;;;;;;;5089929;28;20044;-67
2022/11/30 11:17:19;;;;;;;30.15;26.02;;;;;;;;;;5075888;28;20020;-67
2022/11/30 11:19:48;;;;;;;18.63;15.02;;;;;;;;;;5094029;28;20024;-67
2022/11/30 11:22:14;;;;;;;16.27;13.10;;;;;;;;;;5094176;28;20028;-67
2022/11/30 11:24:39;;;;;;;39.40;28.98;;;;;;;;;;5093844;28;20035;-67
2022/11/30 11:27:05;;;;;;;53.85;36.33;;;;;;;;;;5093764;28;20028;-67
2022/11/30 11:29:32;;;;;;;17.65;15.10;;;;;;;;;;5093754;28;20020;-67
2022/11/30 11:32:17;;;;;;;21.58;16.65;;;;;;;;;;5076751;28;20043;-67
2022/11/30 11:34:42;;;;;;;15.27;13.70;;;;;;;;;;5094732;28;20142;-67
2022/11/30 11:37:17;;;;;;;22.17;14.85;;;;;;;;;;5094584;28;20114;-67
2022/11/30 11:39:53;;;;;;;18.75;14.63;;;;;;;;;;5094745;28;20078;-67
2022/11/30 11:42:19;;;;;;;18.40;13.82;;;;;;;;;;5095006;28;20085;-67
2022/11/30 11:44:48;;;;;;;17.60;12.77;;;;;;;;;;5094638;28;20024;-67
2022/11/30 11:47:25;;;;;;;13.98;11.27;;;;;;;;;;5094794;28;20131;-67
2022/11/30 11:50:02;;;;;;;23.27;18.08;;;;;;;;;;5076256;28;20043;-67
2022/11/30 11:52:27;;;;;;;26.38;20.65;;;;;;;;;;5094364;28;20072;-67
2022/11/30 11:54:54;;;;;;;22.70;16.02;;;;;;;;;;5092662;22;20091;-67
2022/11/30 11:57:22;;;;;;;22.02;16.95;;;;;;;;;;5074068;28;20028;-67
2022/11/30 11:59:53;;;;;;;24.30;19.25;;;;;;;;;;5074100;28;20474;-67
2022/11/30 12:02:35;;;;;;;27.92;21.60;;;;;;;;;;5074051;28;20098;-67
2022/11/30 12:05:06;;;;;;;18.75;15.45;;;;;;;;;;5073999;28;20024;-67
2022/11/30 12:07:35;;;;;;;33.15;21.60;;;;;;;;;;5076158;28;20063;-67
2022/11/30 12:10:19;;;;;;;20.38;14.80;;;;;;;;;;5094162;28;20035;-66
2022/11/30 12:12:44;;;;;;;30.90;19.17;;;;;;;;;;5076149;28;20481;-66
2022/11/30 12:15:11;;;;;;;26.08;17.35;;;;;;;;;;5075662;28;20024;-67
2022/11/30 12:17:37;;;;;;;23.98;16.48;;;;;;;;;;5094615;28;20043;-67
2022/11/30 12:20:21;;;;;;;28.83;16.80;;;;;;;;;;5075361;28;20024;-66
2022/11/30 12:23:04;;;;;;;28.00;15.15;;;;;;;;;;5094134;28;20450;-67
2022/11/30 12:25:33;;;;;;;23.88;15.80;;;;;;;;;;5093972;28;20032;-66
2022/11/30 12:28:18;;;;;;;34.25;22.55;;;;;;;;;;5093227;28;20016;-66
2022/11/30 12:30:55;;;;;;;21.92;14.95;;;;;;;;;;5094543;22;20052;-69
2022/11/30 12:33:21;;;;;;;15.20;11.20;;;;;;;;;;5073622;28;20086;-69
2022/11/30 12:36:08;;;;;;;17.52;13.05;;;;;;;;;;5073598;28;20009;-69
2022/11/30 12:38:47;;;;;;;20.48;14.95;;;;;;;;;;5073563;28;20359;-69
2022/11/30 12:41:12;;;;;;;22.55;15.13;;;;;;;;;;5093157;28;20067;-69
2022/11/30 12:43:44;;;;;;;36.15;20.55;;;;;;;;;;5093633;28;20056;-69
2022/11/30 12:46:25;;;;;;;127.38;62.55;;;;;;;;;;5093643;28;20111;-69
2022/11/30 12:48:50;;;;;;;;;;;;;;;;;;5094071;28;20110;-69
2022/11/30 12:51:19;;;;;;;109.63;75.47;;;;;;;;;;5093522;28;20014;-69
2022/11/30 12:53:44;;;;;;;34.25;25.90;;;;;;;;;;5093254;28;20020;-69
2022/11/30 12:56:13;;;;;;;24.05;20.70;;;;;;;;;;5093089;28;20103;-69
2022/11/30 12:58:41;;;;;;;24.15;17.02;;;;;;;;;;5093644;28;20064;-69
2022/11/30 13:01:15;;;;;;;41.10;23.95;;;;;;;;;;5093586;28;20028;-72
2022/11/30 13:03:52;;;;;;;42.90;35.70;;;;;;;;;;5093681;28;20039;-70
2022/11/30 13:06:21;;;;;;;23.02;16.67;;;;;;;;;;5093371;28;20085;-70
2022/11/30 13:08:53;;;;;;;27.70;18.20;;;;;;;;;;5093830;28;20024;-70
2022/11/30 13:11:21;;;;;;;20.10;16.25;;;;;;;;;;5093430;28;20024;-70
2022/11/30 13:13:52;;;;;;;22.85;16.85;;;;;;;;;;5075360;28;20103;-70
2022/11/30 13:16:18;;;;;;;75.53;58.08;;;;;;;;;;5093262;28;20482;-70
2022/11/30 13:18:44;;;;;;;103.93;88.13;;;;;;;;;;5093245;28;20458;-67
2022/11/30 13:21:46;;;;;;;24.85;19.35;;;;;;;;;;5093114;28;20039;-67
2022/11/30 13:24:31;;;;;;;39.05;28.98;;;;;;;;;;5011060;28;20040;-67
2022/11/30 13:27:00;;;;;;;140.25;95.60;;;;;;;;;;5088157;28;20047;-67
2022/11/30 13:29:31;;;;;;;44.72;27.65;;;;;;;;;;5092653;28;20675;-67
2022/11/30 13:31:58;;;;;;;306.65;182.00;;;;;;;;;;5094850;28;20459;-67
2022/11/30 13:34:28;;;;;;;73.05;43.78;;;;;;;;;;5096828;28;20032;-67
2022/11/30 13:37:20;;;;;;;79.43;48.38;;;;;;;;;;5096567;28;20028;-67
2022/11/30 13:39:53;;;;;;;20.15;14.45;;;;;;;;;;5075104;28;20107;-67
2022/11/30 13:42:30;;;;;;;26.17;17.80;;;;;;;;;;5096717;28;20540;-67
2022/11/30 13:44:56;;;;;;;33.53;25.80;;;;;;;;;;5096837;28;20103;-67
2022/11/30 13:47:27;;;;;;;28.27;18.73;;;;;;;;;;5096858;28;20024;-67
2022/11/30 13:49:54;;;;;;;29.50;19.55;;;;;;;;;;5096869;28;20055;-67
2022/11/30 13:52:39;;;;;;;30.35;18.40;;;;;;;;;;5096761;28;20020;-68
2022/11/30 13:55:25;;;;;;;25.05;18.08;;;;;;;;;;5078453;28;20024;-67
2022/11/30 13:57:50;;;;;;;18.83;14.00;;;;;;;;;;5096632;28;20028;-67
2022/11/30 14:00:28;;;;;;;18.15;14.93;;;;;;;;;;5096645;28;20480;-67
2022/11/30 14:02:56;;;;;;;20.05;14.48;;;;;;;;;;5096647;28;20504;-67
2022/11/30 14:05:41;;;;;;;17.70;14.27;;;;;;;;;;5078404;28;20020;-67
2022/11/30 14:08:10;;;;;;;18.92;14.50;;;;;;;;;;5060234;28;20020;-67
2022/11/30 14:10:40;;;;;;;21.50;14.00;;;;;;;;;;5096123;28;20057;-67
2022/11/30 14:13:09;;;;;;;21.25;16.00;;;;;;;;;;5094505;28;20103;-67
2022/11/30 14:15:37;;;;;;;23.88;15.20;;;;;;;;;;5095803;28;20031;-67
2022/11/30 14:18:08;;;;;;;21.90;16.25;;;;;;;;;;5094797;28;20028;-67
2022/11/30 14:20:36;;;;;;;22.60;17.02;;;;;;;;;;5077928;28;20158;-67
2022/11/30 14:23:12;;;;;;;23.95;16.55;;;;;;;;;;5095890;28;20033;-67
2022/11/30 14:25:40;;;;;;;27.15;18.08;;;;;;;;;;5095820;28;20084;-67
2022/11/30 14:28:05;;;;;;;22.50;16.77;;;;;;;;;;5095913;28;20023;-67
2022/11/30 14:30:32;;;;;;;27.17;19.65;;;;;;;;;;5095628;28;20497;-67